Terminal Aerodrome Forecast
Issued by NWS Northern Indiana

Home | Current Version | Previous Version | Graphics & Text | Print | Product List | Glossary On
Versions: 1 2 3 4 5 6 7 8 9 10 11 12 13 14 15 16 17 18
000
FTUS43 KIWX 141200 RRA
TAFFWA
TAF
KFWA 141203Z 1412/1512 23025G34KT P6SM -SHRA BKN025
     FM141400 25022G30KT 6SM -SHRA BKN020
     FM141800 30017G24KT P6SM OVC020
     FM150300 33017G24KT 5SM -SN OVC012
      TEMPO 1503/1507 2SM -SN BR
     FM151000 32017G24KT P6SM OVC030=

USA.gov is the U.S. government's official web portal to all federal, state and local government web resources and services.